sensor_id;sensor_type;location;lat;lon;timestamp;pressure;altitude;pressure_sealevel;temperature;humidity
46942;BME280;32676;52.630;4.896;2023-01-28T00:01:18;101713.63;;;3.52;76.15
46942;BME280;32676;52.630;4.896;2023-01-28T00:03:48;101720.59;;;3.56;75.99
46942;BME280;32676;52.630;4.896;2023-01-28T00:06:15;101720.59;;;3.56;76.06
46942;BME280;32676;52.630;4.896;2023-01-28T00:08:43;101722.31;;;3.54;75.83
46942;BME280;32676;52.630;4.896;2023-01-28T00:11:11;101724.94;;;3.57;75.83
46942;BME280;32676;52.630;4.896;2023-01-28T00:13:38;101724.06;;;3.58;75.95
46942;BME280;32676;52.630;4.896;2023-01-28T00:16:07;101740.56;;;3.60;75.71
46942;BME280;32676;52.630;4.896;2023-01-28T00:18:34;101737.97;;;3.60;75.93
46942;BME280;32676;52.630;4.896;2023-01-28T00:21:04;101746.63;;;3.62;75.96
46942;BME280;32676;52.630;4.896;2023-01-28T00:23:32;101746.63;;;3.62;75.86
46942;BME280;32676;52.630;4.896;2023-01-28T00:26:01;101740.56;;;3.60;76.10
46942;BME280;32676;52.630;4.896;2023-01-28T00:28:28;101746.63;;;3.62;75.87
46942;BME280;32676;52.630;4.896;2023-01-28T00:30:54;101752.72;;;3.62;75.75
46942;BME280;32676;52.630;4.896;2023-01-28T00:33:21;101747.50;;;3.59;75.19
46942;BME280;32676;52.630;4.896;2023-01-28T00:35:56;101734.38;;;3.49;75.21
46942;BME280;32676;52.630;4.896;2023-01-28T00:38:25;101736.25;;;3.60;75.01
46942;BME280;32676;52.630;4.896;2023-01-28T00:40:52;101735.34;;;3.58;74.88
46942;BME280;32676;52.630;4.896;2023-01-28T00:43:18;101738.81;;;3.59;74.41
46942;BME280;32676;52.630;4.896;2023-01-28T00:45:45;101731.00;;;3.56;74.26
46942;BME280;32676;52.630;4.896;2023-01-28T00:48:11;101725.78;;;3.56;74.42
46942;BME280;32676;52.630;4.896;2023-01-28T00:50:38;101743.13;;;3.57;74.50
46942;BME280;32676;52.630;4.896;2023-01-28T00:53:05;101745.75;;;3.60;74.66
46942;BME280;32676;52.630;4.896;2023-01-28T00:55:33;101739.69;;;3.59;74.72
46942;BME280;32676;52.630;4.896;2023-01-28T00:58:00;101750.09;;;3.61;74.65
46942;BME280;32676;52.630;4.896;2023-01-28T01:00:26;101759.66;;;3.63;74.61
46942;BME280;32676;52.630;4.896;2023-01-28T01:02:53;101761.41;;;3.64;74.38
46942;BME280;32676;52.630;4.896;2023-01-28T01:05:19;101770.09;;;3.67;74.40
46942;BME280;32676;52.630;4.896;2023-01-28T01:07:45;101748.34;;;3.60;74.39
46942;BME280;32676;52.630;4.896;2023-01-28T01:10:14;101717.06;;;3.51;74.21
46942;BME280;32676;52.630;4.896;2023-01-28T01:12:44;101734.44;;;3.56;74.19
46942;BME280;32676;52.630;4.896;2023-01-28T01:15:11;101745.72;;;3.58;74.40
46942;BME280;32676;52.630;4.896;2023-01-28T01:17:38;101743.16;;;3.60;74.40
46942;BME280;32676;52.630;4.896;2023-01-28T01:20:06;101734.41;;;3.52;74.47
46942;BME280;32676;52.630;4.896;2023-01-28T01:22:34;101772.66;;;3.65;74.54
46942;BME280;32676;52.630;4.896;2023-01-28T01:25:01;101753.50;;;3.54;74.49
46942;BME280;32676;52.630;4.896;2023-01-28T01:27:28;101766.59;;;3.64;74.41
46942;BME280;32676;52.630;4.896;2023-01-28T01:29:56;101764.84;;;3.63;74.55
46942;BME280;32676;52.630;4.896;2023-01-28T01:32:23;101776.16;;;3.67;74.24
46942;BME280;32676;52.630;4.896;2023-01-28T01:34:49;101760.56;;;3.64;74.31
46942;BME280;32676;52.630;4.896;2023-01-28T01:37:16;101746.63;;;3.59;74.35
46942;BME280;32676;52.630;4.896;2023-01-28T01:39:42;101750.09;;;3.61;74.03
46942;BME280;32676;52.630;4.896;2023-01-28T01:42:09;101753.56;;;3.60;73.48
46942;BME280;32676;52.630;4.896;2023-01-28T01:44:54;101744.88;;;3.58;72.73
46942;BME280;32676;52.630;4.896;2023-01-28T01:47:24;101747.50;;;3.61;72.50
46942;BME280;32676;52.630;4.896;2023-01-28T01:49:53;101728.38;;;3.56;72.25
46942;BME280;32676;52.630;4.896;2023-01-28T01:52:23;101728.38;;;3.56;72.36
46942;BME280;32676;52.630;4.896;2023-01-28T01:54:54;101723.19;;;3.54;72.31
46942;BME280;32676;52.630;4.896;2023-01-28T01:57:25;101715.31;;;3.48;72.37
46942;BME280;32676;52.630;4.896;2023-01-28T01:59:54;101725.75;;;3.53;72.56
46942;BME280;32676;52.630;4.896;2023-01-28T02:02:32;101712.69;;;3.45;72.86
46942;BME280;32676;52.630;4.896;2023-01-28T02:05:01;101730.94;;;3.53;73.20
46942;BME280;32676;52.630;4.896;2023-01-28T02:07:28;101729.25;;;3.55;73.59
46942;BME280;32676;52.630;4.896;2023-01-28T02:09:55;101736.19;;;3.56;73.79
46942;BME280;32676;52.630;4.896;2023-01-28T02:12:24;101729.25;;;3.55;73.88
46942;BME280;32676;52.630;4.896;2023-01-28T02:14:54;101731.00;;;3.56;74.14
46942;BME280;32676;52.630;4.896;2023-01-28T02:17:23;101744.00;;;3.57;74.35
46942;BME280;32676;52.630;4.896;2023-01-28T02:19:54;101752.69;;;3.59;74.45
46942;BME280;32676;52.630;4.896;2023-01-28T02:22:52;101753.56;;;3.60;74.45
46942;BME280;32676;52.630;4.896;2023-01-28T02:25:50;101759.63;;;3.62;74.48
46942;BME280;32676;52.630;4.896;2023-01-28T02:28:31;101754.44;;;3.60;74.25
46942;BME280;32676;52.630;4.896;2023-01-28T02:31:03;101761.38;;;3.63;74.42
46942;BME280;32676;52.630;4.896;2023-01-28T02:33:40;101741.34;;;3.53;74.39
46942;BME280;32676;52.630;4.896;2023-01-28T02:36:16;101757.91;;;3.61;74.28
46942;BME280;32676;52.630;4.896;2023-01-28T02:38:48;101762.22;;;3.62;74.13
46942;BME280;32676;52.630;4.896;2023-01-28T02:41:22;101761.38;;;3.61;74.00
46942;BME280;32676;52.630;4.896;2023-01-28T02:43:51;101769.19;;;3.63;74.13
46942;BME280;32676;52.630;4.896;2023-01-28T02:46:21;101769.22;;;3.64;74.20
46942;BME280;32676;52.630;4.896;2023-01-28T02:49:07;101782.22;;;3.66;74.15
46942;BME280;32676;52.630;4.896;2023-01-28T02:52:13;101780.50;;;3.67;74.01
46942;BME280;32676;52.630;4.896;2023-01-28T02:54:44;101790.03;;;3.69;73.99
46942;BME280;32676;52.630;4.896;2023-01-28T02:57:20;101792.66;;;3.68;73.71
46942;BME280;32676;52.630;4.896;2023-01-28T02:59:56;101784.81;;;3.66;73.91
46942;BME280;32676;52.630;4.896;2023-01-28T03:02:29;101793.50;;;3.68;74.14
46942;BME280;32676;52.630;4.896;2023-01-28T03:05:04;101777.88;;;3.65;74.26
46942;BME280;32676;52.630;4.896;2023-01-28T03:07:34;101773.53;;;3.64;74.54
46942;BME280;32676;52.630;4.896;2023-01-28T03:10:05;101748.34;;;3.57;74.63
46942;BME280;32676;52.630;4.896;2023-01-28T03:12:34;101729.19;;;3.49;74.94
46942;BME280;32676;52.630;4.896;2023-01-28T03:15:23;101744.84;;;3.55;75.23
46942;BME280;32676;52.630;4.896;2023-01-28T03:18:10;101737.00;;;3.50;75.16
46942;BME280;32676;52.630;4.896;2023-01-28T03:21:01;101732.69;;;3.54;75.03
46942;BME280;32676;52.630;4.896;2023-01-28T03:23:49;101737.00;;;3.52;75.19
46942;BME280;32676;52.630;4.896;2023-01-28T03:26:43;101740.44;;;3.51;75.11
46942;BME280;32676;52.630;4.896;2023-01-28T03:29:30;101750.06;;;3.58;75.04
46942;BME280;32676;52.630;4.896;2023-01-28T03:32:16;101736.16;;;3.53;75.12
46942;BME280;32676;52.630;4.896;2023-01-28T03:35:03;101744.84;;;3.55;75.13
46942;BME280;32676;52.630;4.896;2023-01-28T03:37:49;101746.59;;;3.56;75.30
46942;BME280;32676;52.630;4.896;2023-01-28T03:40:16;101749.19;;;3.57;75.29
46942;BME280;32676;52.630;4.896;2023-01-28T03:42:44;101747.47;;;3.55;75.30
46942;BME280;32676;52.630;4.896;2023-01-28T03:45:11;101754.41;;;3.59;75.15
46942;BME280;32676;52.630;4.896;2023-01-28T03:47:40;101727.34;;;3.41;75.04
46942;BME280;32676;52.630;4.896;2023-01-28T03:50:08;101775.25;;;3.60;75.15
46942;BME280;32676;52.630;4.896;2023-01-28T03:52:35;101743.94;;;3.51;75.25
46942;BME280;32676;52.630;4.896;2023-01-28T03:55:02;101760.47;;;3.58;75.22
46942;BME280;32676;52.630;4.896;2023-01-28T03:57:37;101748.34;;;3.57;75.23
46942;BME280;32676;52.630;4.896;2023-01-28T04:00:05;101744.84;;;3.55;75.26
46942;BME280;32676;52.630;4.896;2023-01-28T04:02:31;101744.84;;;3.55;75.01
46942;BME280;32676;52.630;4.896;2023-01-28T04:05:00;101739.66;;;3.55;75.26
46942;BME280;32676;52.630;4.896;2023-01-28T04:07:31;101725.75;;;3.50;75.11
46942;BME280;32676;52.630;4.896;2023-01-28T04:09:57;101707.47;;;3.45;75.10
46942;BME280;32676;52.630;4.896;2023-01-28T04:12:24;101696.19;;;3.41;75.49
46942;BME280;32676;52.630;4.896;2023-01-28T04:14:50;101698.78;;;3.41;75.67
46942;BME280;32676;52.630;4.896;2023-01-28T04:17:17;101687.50;;;3.39;75.70
46942;BME280;32676;52.630;4.896;2023-01-28T04:19:43;101670.06;;;3.29;75.96
46942;BME280;32676;52.630;4.896;2023-01-28T04:22:11;101677.97;;;3.38;75.99
46942;BME280;32676;52.630;4.896;2023-01-28T04:24:38;101679.69;;;3.38;75.85
46942;BME280;32676;52.630;4.896;2023-01-28T04:27:04;101703.13;;;3.41;76.08
46942;BME280;32676;52.630;4.896;2023-01-28T04:29:31;101663.16;;;3.30;76.17
46942;BME280;32676;52.630;4.896;2023-01-28T04:31:57;101678.81;;;3.37;75.85
46942;BME280;32676;52.630;4.896;2023-01-28T04:34:24;101677.06;;;3.36;75.85
46942;BME280;32676;52.630;4.896;2023-01-28T04:36:50;101666.66;;;3.33;75.64
46942;BME280;32676;52.630;4.896;2023-01-28T04:39:18;101664.91;;;3.32;75.78
46942;BME280;32676;52.630;4.896;2023-01-28T04:41:44;101677.06;;;3.36;75.69
46942;BME280;32676;52.630;4.896;2023-01-28T04:44:11;101662.31;;;3.32;75.67
46942;BME280;32676;52.630;4.896;2023-01-28T04:46:38;101638.84;;;3.23;75.58
46942;BME280;32676;52.630;4.896;2023-01-28T04:49:04;101631.94;;;3.25;75.36
46942;BME280;32676;52.630;4.896;2023-01-28T04:51:30;101627.63;;;3.24;75.49
46942;BME280;32676;52.630;4.896;2023-01-28T04:53:57;101632.78;;;3.25;75.43
46942;BME280;32676;52.630;4.896;2023-01-28T04:56:25;101640.59;;;3.24;75.31
46942;BME280;32676;52.630;4.896;2023-01-28T04:58:51;101652.75;;;3.28;75.49
46942;BME280;32676;52.630;4.896;2023-01-28T05:01:18;101661.47;;;3.33;75.36
46942;BME280;32676;52.630;4.896;2023-01-28T05:03:44;101672.75;;;3.35;75.40
46942;BME280;32676;52.630;4.896;2023-01-28T05:06:11;101650.09;;;3.23;75.09
46942;BME280;32676;52.630;4.896;2023-01-28T05:08:37;101668.38;;;3.31;75.13
46942;BME280;32676;52.630;4.896;2023-01-28T05:11:04;101690.94;;;3.38;75.03
46942;BME280;32676;52.630;4.896;2023-01-28T05:13:32;101694.47;;;3.40;74.93
46942;BME280;32676;52.630;4.896;2023-01-28T05:15:58;101696.19;;;3.41;74.85
46942;BME280;32676;52.630;4.896;2023-01-28T05:18:25;101706.56;;;3.41;74.88
46942;BME280;32676;52.630;4.896;2023-01-28T05:20:51;101711.78;;;3.43;74.87
46942;BME280;32676;52.630;4.896;2023-01-28T05:23:18;101698.72;;;3.35;74.97
46942;BME280;32676;52.630;4.896;2023-01-28T05:25:44;101715.28;;;3.45;74.89
46942;BME280;32676;52.630;4.896;2023-01-28T05:28:11;101717.88;;;3.45;74.81
46942;BME280;32676;52.630;4.896;2023-01-28T05:30:39;101723.94;;;3.45;74.75
46942;BME280;32676;52.630;4.896;2023-01-28T05:33:05;101709.16;;;3.40;74.69
46942;BME280;32676;52.630;4.896;2023-01-28T05:35:32;101710.94;;;3.42;74.76
46942;BME280;32676;52.630;4.896;2023-01-28T05:38:00;101709.19;;;3.43;74.79
46942;BME280;32676;52.630;4.896;2023-01-28T05:40:27;101715.25;;;3.43;74.89
46942;BME280;32676;52.630;4.896;2023-01-28T05:42:53;101708.28;;;3.39;74.75
46942;BME280;32676;52.630;4.896;2023-01-28T05:45:20;101715.25;;;3.43;74.93
46942;BME280;32676;52.630;4.896;2023-01-28T05:47:47;101698.72;;;3.35;74.74
46942;BME280;32676;52.630;4.896;2023-01-28T05:50:14;101727.41;;;3.44;74.72
46942;BME280;32676;52.630;4.896;2023-01-28T05:52:41;101717.88;;;3.45;74.76
46942;BME280;32676;52.630;4.896;2023-01-28T05:55:08;101717.00;;;3.44;74.74
46942;BME280;32676;52.630;4.896;2023-01-28T05:57:35;101713.53;;;3.42;74.78
46942;BME280;32676;52.630;4.896;2023-01-28T06:00:02;101699.66;;;3.40;74.62
46942;BME280;32676;52.630;4.896;2023-01-28T06:02:29;101704.84;;;3.40;74.46
46942;BME280;32676;52.630;4.896;2023-01-28T06:04:57;101681.38;;;3.34;74.42
46942;BME280;32676;52.630;4.896;2023-01-28T06:07:24;101664.91;;;3.32;74.49
46942;BME280;32676;52.630;4.896;2023-01-28T06:09:50;101657.94;;;3.28;74.92
46942;BME280;32676;52.630;4.896;2023-01-28T06:12:16;101656.19;;;3.27;75.15
46942;BME280;32676;52.630;4.896;2023-01-28T06:14:43;101645.78;;;3.24;75.29
46942;BME280;32676;52.630;4.896;2023-01-28T06:17:09;101645.81;;;3.27;75.61
46942;BME280;32676;52.630;4.896;2023-01-28T06:19:36;101620.59;;;3.17;75.64
46942;BME280;32676;52.630;4.896;2023-01-28T06:22:04;101637.09;;;3.22;75.91
46942;BME280;32676;52.630;4.896;2023-01-28T06:24:30;101634.44;;;3.16;75.90
46942;BME280;32676;52.630;4.896;2023-01-28T06:26:56;101648.41;;;3.27;76.15
46942;BME280;32676;52.630;4.896;2023-01-28T06:29:23;101624.94;;;3.18;76.12
46942;BME280;32676;52.630;4.896;2023-01-28T06:31:49;101636.25;;;3.24;76.10
46942;BME280;32676;52.630;4.896;2023-01-28T06:34:16;101621.50;;;3.19;76.26
46942;BME280;32676;52.630;4.896;2023-01-28T06:36:43;101595.44;;;3.10;76.37
46942;BME280;32676;52.630;4.896;2023-01-28T06:39:11;101605.03;;;3.17;76.36
46942;BME280;32676;52.630;4.896;2023-01-28T06:41:37;101609.34;;;3.15;76.42
46942;BME280;32676;52.630;4.896;2023-01-28T06:44:04;101598.94;;;3.15;76.52
46942;BME280;32676;52.630;4.896;2023-01-28T06:46:31;101595.44;;;3.13;76.50
46942;BME280;32676;52.630;4.896;2023-01-28T06:48:57;101595.44;;;3.13;76.33
46942;BME280;32676;52.630;4.896;2023-01-28T06:51:23;101602.38;;;3.14;76.30
46942;BME280;32676;52.630;4.896;2023-01-28T06:53:50;101598.91;;;3.12;76.60
46942;BME280;32676;52.630;4.896;2023-01-28T06:56:18;101576.38;;;3.07;76.27
46942;BME280;32676;52.630;4.896;2023-01-28T06:58:44;101543.31;;;2.91;76.37
46942;BME280;32676;52.630;4.896;2023-01-28T07:01:11;101543.31;;;2.91;76.31
46942;BME280;32676;52.630;4.896;2023-01-28T07:03:37;101539.91;;;2.98;75.94
46942;BME280;32676;52.630;4.896;2023-01-28T07:06:04;101536.41;;;2.96;76.16
46942;BME280;32676;52.630;4.896;2023-01-28T07:08:30;101520.81;;;2.92;76.01
46942;BME280;32676;52.630;4.896;2023-01-28T07:10:57;101498.22;;;2.83;75.95
46942;BME280;32676;52.630;4.896;2023-01-28T07:13:25;101497.38;;;2.87;75.75
46942;BME280;32676;52.630;4.896;2023-01-28T07:15:51;101494.78;;;2.87;75.89
46942;BME280;32676;52.630;4.896;2023-01-28T07:18:18;101487.88;;;2.86;76.15
46942;BME280;32676;52.630;4.896;2023-01-28T07:20:44;101490.44;;;2.84;76.24
46942;BME280;32676;52.630;4.896;2023-01-28T07:23:11;101492.19;;;2.84;76.52
46942;BME280;32676;52.630;4.896;2023-01-28T07:25:37;101479.16;;;2.81;76.61
46942;BME280;32676;52.630;4.896;2023-01-28T07:28:04;101463.50;;;2.75;76.59
46942;BME280;32676;52.630;4.896;2023-01-28T07:30:32;101449.69;;;2.76;76.68
46942;BME280;32676;52.630;4.896;2023-01-28T07:32:59;101449.66;;;2.73;76.58
46942;BME280;32676;52.630;4.896;2023-01-28T07:35:26;101433.19;;;2.69;76.62
46942;BME280;32676;52.630;4.896;2023-01-28T07:37:53;101425.41;;;2.67;76.72
46942;BME280;32676;52.630;4.896;2023-01-28T07:40:20;101401.16;;;2.62;76.53
46942;BME280;32676;52.630;4.896;2023-01-28T07:42:47;101388.97;;;2.58;76.64
46942;BME280;32676;52.630;4.896;2023-01-28T07:45:14;101349.97;;;2.46;76.46
46942;BME280;32676;52.630;4.896;2023-01-28T07:47:42;101357.81;;;2.52;76.63
46942;BME280;32676;52.630;4.896;2023-01-28T07:50:09;101351.75;;;2.50;76.54
46942;BME280;32676;52.630;4.896;2023-01-28T07:52:36;101339.56;;;2.43;76.41
46942;BME280;32676;52.630;4.896;2023-01-28T07:55:09;101321.38;;;2.40;76.72
46942;BME280;32676;52.630;4.896;2023-01-28T07:57:36;101303.22;;;2.37;76.73
46942;BME280;32676;52.630;4.896;2023-01-28T08:00:03;101298.88;;;2.36;76.79
46942;BME280;32676;52.630;4.896;2023-01-28T08:02:29;101316.19;;;2.40;76.75
46942;BME280;32676;52.630;4.896;2023-01-28T08:04:57;101328.34;;;2.44;76.82
46942;BME280;32676;52.630;4.896;2023-01-28T08:07:26;101334.41;;;2.46;76.97
46942;BME280;32676;52.630;4.896;2023-01-28T08:09:53;101361.28;;;2.51;76.71
46942;BME280;32676;52.630;4.896;2023-01-28T08:12:19;101371.66;;;2.54;76.80
46942;BME280;32676;52.630;4.896;2023-01-28T08:14:46;101361.16;;;2.42;76.79
46942;BME280;32676;52.630;4.896;2023-01-28T08:17:12;101397.69;;;2.60;76.73
46942;BME280;32676;52.630;4.896;2023-01-28T08:19:39;101420.19;;;2.64;76.57
46942;BME280;32676;52.630;4.896;2023-01-28T08:22:06;101437.53;;;2.68;76.43
46942;BME280;32676;52.630;4.896;2023-01-28T08:24:33;101458.31;;;2.75;76.30
46942;BME280;32676;52.630;4.896;2023-01-28T08:26:59;101477.41;;;2.80;76.20
46942;BME280;32676;52.630;4.896;2023-01-28T08:29:26;101506.94;;;2.88;76.08
46942;BME280;32676;52.630;4.896;2023-01-28T08:31:52;101529.47;;;2.92;76.16
46942;BME280;32676;52.630;4.896;2023-01-28T08:34:19;101548.56;;;2.97;76.11
46942;BME280;32676;52.630;4.896;2023-01-28T08:36:45;101564.13;;;2.97;76.05
46942;BME280;32676;52.630;4.896;2023-01-28T08:39:13;101576.25;;;2.97;76.01
46942;BME280;32676;52.630;4.896;2023-01-28T08:41:39;101630.09;;;3.15;75.97
46942;BME280;32676;52.630;4.896;2023-01-28T08:44:06;101656.94;;;3.18;76.00
46942;BME280;32676;52.630;4.896;2023-01-28T08:46:32;101708.25;;;3.36;75.81
46942;BME280;32676;52.630;4.896;2023-01-28T08:48:59;101736.03;;;3.43;75.89
46942;BME280;32676;52.630;4.896;2023-01-28T08:51:25;101762.13;;;3.50;75.79
46942;BME280;32676;52.630;4.896;2023-01-28T08:53:52;101773.34;;;3.49;75.51
46942;BME280;32676;52.630;4.896;2023-01-28T08:56:20;101796.00;;;3.59;75.30
46942;BME280;32676;52.630;4.896;2023-01-28T08:58:46;101819.41;;;3.59;75.11
46942;BME280;32676;52.630;4.896;2023-01-28T09:01:13;101846.28;;;3.62;74.74
46942;BME280;32676;52.630;4.896;2023-01-28T09:03:40;101878.50;;;3.75;74.71
46942;BME280;32676;52.630;4.896;2023-01-28T09:06:06;101906.34;;;3.85;74.40
46942;BME280;32676;52.630;4.896;2023-01-28T09:08:33;101935.88;;;3.91;74.13
46942;BME280;32676;52.630;4.896;2023-01-28T09:11:00;101956.78;;;3.97;73.90
46942;BME280;32676;52.630;4.896;2023-01-28T09:13:28;101983.72;;;4.03;73.47
46942;BME280;32676;52.630;4.896;2023-01-28T09:15:55;101984.53;;;3.98;72.94
46942;BME280;32676;52.630;4.896;2023-01-28T09:18:22;102017.66;;;4.11;72.63
46942;BME280;32676;52.630;4.896;2023-01-28T09:20:48;102051.59;;;4.19;72.25
46942;BME280;32676;52.630;4.896;2023-01-28T09:23:15;102067.22;;;4.22;71.93
46942;BME280;32676;52.630;4.896;2023-01-28T09:25:41;102078.53;;;4.26;71.57
46942;BME280;32676;52.630;4.896;2023-01-28T09:28:08;102112.50;;;4.33;71.52
46942;BME280;32676;52.630;4.896;2023-01-28T09:30:36;102122.94;;;4.35;71.26
46942;BME280;32676;52.630;4.896;2023-01-28T09:33:04;102109.75;;;4.26;71.08
46942;BME280;32676;52.630;4.896;2023-01-28T09:35:32;102120.28;;;4.32;71.03
46942;BME280;32676;52.630;4.896;2023-01-28T09:37:59;102170.78;;;4.46;70.85
46942;BME280;32676;52.630;4.896;2023-01-28T09:40:31;102162.97;;;4.45;70.47
46942;BME280;32676;52.630;4.896;2023-01-28T09:43:21;102156.88;;;4.44;70.29
46942;BME280;32676;52.630;4.896;2023-01-28T09:45:53;102157.66;;;4.40;70.08
46942;BME280;32676;52.630;4.896;2023-01-28T09:48:22;102160.34;;;4.43;69.98
46942;BME280;32676;52.630;4.896;2023-01-28T09:50:51;102164.69;;;4.44;69.84
46942;BME280;32676;52.630;4.896;2023-01-28T09:53:24;102172.53;;;4.47;69.76
46942;BME280;32676;52.630;4.896;2023-01-28T09:55:55;102189.97;;;4.51;69.57
46942;BME280;32676;52.630;4.896;2023-01-28T09:58:22;102191.66;;;4.48;69.51
46942;BME280;32676;52.630;4.896;2023-01-28T10:00:55;102217.66;;;4.49;69.66
46942;BME280;32676;52.630;4.896;2023-01-28T10:03:35;102273.53;;;4.70;69.66
46942;BME280;32676;52.630;4.896;2023-01-28T10:06:22;102296.16;;;4.74;69.26
46942;BME280;32676;52.630;4.896;2023-01-28T10:09:13;102334.53;;;4.84;69.05
46942;BME280;32676;52.630;4.896;2023-01-28T10:11:53;102376.34;;;4.93;69.14
46942;BME280;32676;52.630;4.896;2023-01-28T10:14:35;102392.88;;;4.95;69.09
46942;BME280;32676;52.630;4.896;2023-01-28T10:17:12;102426.03;;;5.07;69.06
46942;BME280;32676;52.630;4.896;2023-01-28T10:19:44;102452.22;;;5.13;68.86
46942;BME280;32676;52.630;4.896;2023-01-28T10:22:15;102479.22;;;5.20;68.82
46942;BME280;32676;52.630;4.896;2023-01-28T10:24:47;102507.16;;;5.27;68.44
46942;BME280;32676;52.630;4.896;2023-01-28T10:27:18;102545.50;;;5.34;68.30
46942;BME280;32676;52.630;4.896;2023-01-28T10:29:46;102559.50;;;5.39;68.29
46942;BME280;32676;52.630;4.896;2023-01-28T10:32:21;102583.91;;;5.45;68.26
46942;BME280;32676;52.630;4.896;2023-01-28T10:34:51;102590.91;;;5.46;67.98
46942;BME280;32676;52.630;4.896;2023-01-28T10:37:18;102596.16;;;5.49;67.78
46942;BME280;32676;52.630;4.896;2023-01-28T10:39:46;102640.56;;;5.53;67.52
46942;BME280;32676;52.630;4.896;2023-01-28T10:42:19;102654.59;;;5.62;67.79
46942;BME280;32676;52.630;4.896;2023-01-28T10:44:48;102676.47;;;5.68;67.45
46942;BME280;32676;52.630;4.896;2023-01-28T10:47:26;102675.59;;;5.68;67.24
46942;BME280;32676;52.630;4.896;2023-01-28T10:49:55;102692.13;;;5.68;66.95
46942;BME280;32676;52.630;4.896;2023-01-28T10:52:24;102710.47;;;5.74;66.77
46942;BME280;32676;52.630;4.896;2023-01-28T10:54:58;102698.25;;;5.70;66.42
46942;BME280;32676;52.630;4.896;2023-01-28T10:57:25;102720.13;;;5.79;66.60
46942;BME280;32676;52.630;4.896;2023-01-28T10:59:52;102735.78;;;5.79;66.54
46942;BME280;32676;52.630;4.896;2023-01-28T11:02:27;102732.25;;;5.76;66.28
46942;BME280;32676;52.630;4.896;2023-01-28T11:05:06;102747.16;;;5.84;66.27
46942;BME280;32676;52.630;4.896;2023-01-28T11:07:32;102762.88;;;5.87;65.99
46942;BME280;32676;52.630;4.896;2023-01-28T11:10:00;102776.84;;;5.90;65.94
46942;BME280;32676;52.630;4.896;2023-01-28T11:12:28;102786.47;;;5.93;65.80
46942;BME280;32676;52.630;4.896;2023-01-28T11:14:57;102808.34;;;5.98;65.82
46942;BME280;32676;52.630;4.896;2023-01-28T11:17:26;102821.44;;;6.01;65.54
46942;BME280;32676;52.630;4.896;2023-01-28T11:19:55;102833.69;;;6.05;65.49
46942;BME280;32676;52.630;4.896;2023-01-28T11:22:27;102853.78;;;6.08;65.37
46942;BME280;32676;52.630;4.896;2023-01-28T11:24:56;102865.16;;;6.11;65.24
46942;BME280;32676;52.630;4.896;2023-01-28T11:27:28;102853.81;;;6.09;65.35
46942;BME280;32676;52.630;4.896;2023-01-28T11:29:56;102876.50;;;6.13;65.37
46942;BME280;32676;52.630;4.896;2023-01-28T11:32:28;102905.31;;;6.20;65.17
46942;BME280;32676;52.630;4.896;2023-01-28T11:34:56;102943.75;;;6.27;65.42
46942;BME280;32676;52.630;4.896;2023-01-28T11:37:24;102979.56;;;6.34;65.34
46942;BME280;32676;52.630;4.896;2023-01-28T11:40:00;103031.34;;;6.53;65.17
46942;BME280;32676;52.630;4.896;2023-01-28T11:42:29;103075.06;;;6.64;64.98
46942;BME280;32676;52.630;4.896;2023-01-28T11:44:55;103127.53;;;6.75;64.66
46942;BME280;32676;52.630;4.896;2023-01-28T11:47:35;103183.53;;;6.87;64.50
46942;BME280;32676;52.630;4.896;2023-01-28T11:50:17;103238.63;;;6.97;64.42
46942;BME280;32676;52.630;4.896;2023-01-28T11:53:01;103295.69;;;7.16;64.10
46942;BME280;32676;52.630;4.896;2023-01-28T11:55:40;103286.88;;;7.11;64.01
46942;BME280;32676;52.630;4.896;2023-01-28T11:58:20;103336.00;;;7.24;63.57
46942;BME280;32676;52.630;4.896;2023-01-28T12:00:59;103335.03;;;7.21;63.25
46942;BME280;32676;52.630;4.896;2023-01-28T12:03:38;103315.00;;;7.21;63.03
46942;BME280;32676;52.630;4.896;2023-01-28T12:06:21;103276.41;;;7.11;63.08
46942;BME280;32676;52.630;4.896;2023-01-28T12:08:55;103256.22;;;7.04;62.77
46942;BME280;32676;52.630;4.896;2023-01-28T12:11:29;103223.72;;;6.92;62.93
46942;BME280;32676;52.630;4.896;2023-01-28T12:14:25;103237.88;;;7.01;62.96
46942;BME280;32676;52.630;4.896;2023-01-28T12:17:03;103256.25;;;7.05;62.95
46942;BME280;32676;52.630;4.896;2023-01-28T12:19:51;103273.78;;;7.09;63.44
46942;BME280;32676;52.630;4.896;2023-01-28T12:22:33;103277.28;;;7.10;63.45
46942;BME280;32676;52.630;4.896;2023-01-28T12:25:15;103333.38;;;7.24;63.35
46942;BME280;32676;52.630;4.896;2023-01-28T12:27:51;103377.16;;;7.33;63.41
46942;BME280;32676;52.630;4.896;2023-01-28T12:30:36;103378.72;;;7.25;63.36
46942;BME280;32676;52.630;4.896;2023-01-28T12:33:24;103421.00;;;7.45;63.36
46942;BME280;32676;52.630;4.896;2023-01-28T12:36:02;103464.88;;;7.57;63.20
46942;BME280;32676;52.630;4.896;2023-01-28T12:38:41;103488.53;;;7.61;62.61
46942;BME280;32676;52.630;4.896;2023-01-28T12:41:10;103479.75;;;7.59;62.40
46942;BME280;32676;52.630;4.896;2023-01-28T12:43:50;103477.19;;;7.61;62.47
46942;BME280;32676;52.630;4.896;2023-01-28T12:46:26;103460.41;;;7.53;62.32
46942;BME280;32676;52.630;4.896;2023-01-28T12:48:59;103461.38;;;7.56;62.17
46942;BME280;32676;52.630;4.896;2023-01-28T12:51:34;103461.31;;;7.55;62.35
46942;BME280;32676;52.630;4.896;2023-01-28T12:54:05;103449.91;;;7.51;62.47
46942;BME280;32676;52.630;4.896;2023-01-28T12:56:41;103427.06;;;7.44;62.46
46942;BME280;32676;52.630;4.896;2023-01-28T12:59:12;103435.91;;;7.49;62.54
46942;BME280;32676;52.630;4.896;2023-01-28T13:01:41;103423.66;;;7.46;62.43
46942;BME280;32676;52.630;4.896;2023-01-28T13:04:15;103428.94;;;7.48;62.73
46942;BME280;32676;52.630;4.896;2023-01-28T13:06:51;103419.25;;;7.45;62.77
46942;BME280;32676;52.630;4.896;2023-01-28T13:09:24;103394.72;;;7.39;62.62
46942;BME280;32676;52.630;4.896;2023-01-28T13:11:55;103386.78;;;7.36;62.94
46942;BME280;32676;52.630;4.896;2023-01-28T13:14:26;103402.56;;;7.40;62.80
46942;BME280;32676;52.630;4.896;2023-01-28T13:16:54;103407.84;;;7.42;62.75